Time;durP1;ratioP1;P1;durP2;ratioP2;P2;SDS_P1;SDS_P2;PMS_P1;PMS_P2;Temp;Humidity;BMP_temperature;BMP_pressure;BME280_temperature;BME280_humidity;BME280_pressure;Samples;Min_cycle;Max_cycle;Signal;HPM_P1;HPM_P2
2023/11/25 00:01:01;;;;;;;1.90;1.80;;;5.70;99.90;;;;;;5079583;28;20286;-80
2023/11/25 00:03:28;;;;;;;1.65;1.55;;;5.70;99.90;;;;;;5075485;28;20193;-84
2023/11/25 00:05:55;;;;;;;1.48;1.42;;;5.70;99.90;;;;;;5077237;28;21179;-79
2023/11/25 00:08:22;;;;;;;1.90;1.80;;;5.70;99.90;;;;;;5081808;28;20199;-85
2023/11/25 00:10:49;;;;;;;1.60;1.60;;;5.70;99.90;;;;;;5069337;28;20223;-80
2023/11/25 00:13:20;;;;;;;1.70;1.70;;;5.60;99.90;;;;;;5075259;28;20222;-79
2023/11/25 00:15:47;;;;;;;1.75;1.75;;;5.50;99.90;;;;;;5076891;28;20226;-80
2023/11/25 00:18:14;;;;;;;2.10;2.00;;;5.40;99.90;;;;;;5077633;28;21028;-83
2023/11/25 00:20:41;;;;;;;1.80;1.80;;;5.30;99.90;;;;;;5078979;28;20648;-85
2023/11/25 00:23:08;;;;;;;1.80;1.80;;;5.20;99.90;;;;;;5079533;28;20206;-81
2023/11/25 00:25:35;;;;;;;1.85;1.75;;;5.10;99.90;;;;;;5076475;28;20249;-87
2023/11/25 00:28:04;;;;;;;1.60;1.60;;;5.10;99.90;;;;;;5076739;28;20222;-85
2023/11/25 00:30:33;;;;;;;1.80;1.80;;;5.00;99.90;;;;;;5077851;28;20885;-84
2023/11/25 00:33:02;;;;;;;1.83;1.73;;;5.00;99.90;;;;;;5078566;28;20218;-79
2023/11/25 00:35:30;;;;;;;2.05;1.95;;;5.00;99.90;;;;;;5074606;28;20227;-77
2023/11/25 00:37:57;;;;;;;1.92;1.70;;;5.00;99.90;;;;;;5077068;28;20234;-78
2023/11/25 00:40:25;;;;;;;2.00;1.90;;;4.90;99.90;;;;;;5075905;28;20232;-79
2023/11/25 00:42:52;;;;;;;1.60;1.60;;;4.90;99.90;;;;;;5076844;28;20261;-80
2023/11/25 00:45:20;;;;;;;1.80;1.80;;;4.80;99.90;;;;;;5078386;28;20591;-78
2023/11/25 00:47:49;;;;;;;1.70;1.70;;;4.80;99.90;;;;;;5071552;28;20199;-81
2023/11/25 00:50:16;;;;;;;1.70;1.70;;;4.80;99.90;;;;;;5080140;28;20230;-82
2023/11/25 00:52:43;;;;;;;1.80;1.70;;;4.80;99.90;;;;;;5074334;28;20614;-81
2023/11/25 00:55:11;;;;;;;1.70;1.70;;;4.70;99.90;;;;;;5072838;28;20257;-81
2023/11/25 00:57:38;;;;;;;1.63;1.63;;;4.80;99.90;;;;;;5074511;28;20190;-83
2023/11/25 01:00:10;;;;;;;1.55;1.55;;;4.80;99.90;;;;;;5074883;28;20219;-79
2023/11/25 01:02:37;;;;;;;1.55;1.55;;;4.80;99.90;;;;;;5072034;28;20198;-84
2023/11/25 01:05:06;;;;;;;1.73;1.73;;;4.80;99.90;;;;;;5076292;28;20233;-78
2023/11/25 01:07:33;;;;;;;1.88;1.77;;;4.90;99.90;;;;;;5078364;28;20202;-80
2023/11/25 01:10:00;;;;;;;1.70;1.70;;;4.90;99.90;;;;;;5078512;28;20225;-82
2023/11/25 01:12:27;;;;;;;1.85;1.85;;;4.90;99.90;;;;;;5076671;28;20206;-85
2023/11/25 01:14:54;;;;;;;1.90;1.90;;;4.90;99.90;;;;;;5075617;28;20225;-80
2023/11/25 01:17:23;;;;;;;2.03;1.98;;;4.90;99.90;;;;;;5077102;28;20206;-87
2023/11/25 01:19:50;;;;;;;1.88;1.88;;;4.90;99.90;;;;;;5076106;28;20197;-87
2023/11/25 01:22:18;;;;;;;1.80;1.80;;;4.90;99.90;;;;;;5077087;28;20669;-84
2023/11/25 01:24:47;;;;;;;1.95;1.95;;;4.90;99.90;;;;;;5075659;28;20214;-78
2023/11/25 01:27:15;;;;;;;1.98;1.88;;;4.90;99.90;;;;;;5075623;28;20205;-83
2023/11/25 01:29:42;;;;;;;1.73;1.70;;;4.90;99.90;;;;;;5069636;28;20438;-80
2023/11/25 01:32:09;;;;;;;1.95;1.95;;;4.90;99.90;;;;;;5076220;28;20206;-78
2023/11/25 01:34:36;;;;;;;2.00;1.90;;;4.90;99.90;;;;;;5072710;28;20214;-82
2023/11/25 01:37:03;;;;;;;1.88;1.88;;;5.00;99.90;;;;;;5072748;28;20225;-82
2023/11/25 01:39:32;;;;;;;1.75;1.70;;;5.10;99.90;;;;;;5073576;28;20210;-81
2023/11/25 01:41:59;;;;;;;2.20;2.10;;;5.30;99.90;;;;;;5071156;28;20445;-82
2023/11/25 01:44:26;;;;;;;1.80;1.80;;;5.30;99.90;;;;;;5071408;28;20225;-83
2023/11/25 01:46:54;;;;;;;2.10;2.00;;;5.40;99.90;;;;;;5074481;28;20244;-84
2023/11/25 01:49:21;;;;;;;1.90;1.90;;;5.40;99.90;;;;;;5074939;28;20202;-81
2023/11/25 01:51:51;;;;;;;2.00;1.90;;;5.40;99.90;;;;;;5071415;28;20575;-79
2023/11/25 01:54:20;;;;;;;1.88;1.88;;;5.30;99.90;;;;;;5071722;28;20255;-86
2023/11/25 01:56:56;;;;;;;1.80;1.80;;;5.30;99.90;;;;;;5074006;28;20218;-80
2023/11/25 01:59:25;;;;;;;1.60;1.60;;;5.20;99.90;;;;;;5072385;28;20224;-80
2023/11/25 02:01:52;;;;;;;2.00;2.00;;;5.10;99.90;;;;;;5073094;28;20220;-82
2023/11/25 02:04:19;;;;;;;1.90;1.88;;;5.00;99.90;;;;;;5075766;28;20233;-87
2023/11/25 02:06:46;;;;;;;2.00;1.90;;;5.00;99.90;;;;;;5073729;28;20214;-81
2023/11/25 02:09:14;;;;;;;2.13;2.03;;;4.90;99.90;;;;;;5075252;28;20197;-83
2023/11/25 02:11:59;;;;;;;2.15;2.05;;;4.90;99.90;;;;;;5075362;28;20214;-79
2023/11/25 02:14:27;;;;;;;2.13;2.03;;;4.90;99.90;;;;;;5073898;28;20226;-83
2023/11/25 02:16:55;;;;;;;1.98;1.98;;;4.90;99.90;;;;;;5073683;28;20896;-88
2023/11/25 02:19:24;;;;;;;1.80;1.80;;;4.90;99.90;;;;;;5072106;28;20213;-80
2023/11/25 02:21:52;;;;;;;1.67;1.67;;;4.90;99.90;;;;;;5073877;28;20715;-80
2023/11/25 02:24:22;;;;;;;2.20;2.10;;;4.90;99.90;;;;;;5071266;28;20223;-82
2023/11/25 02:26:57;;;;;;;2.20;2.10;;;4.90;99.90;;;;;;5074562;28;20300;-80
2023/11/25 02:29:24;;;;;;;1.80;1.80;;;4.90;99.90;;;;;;5075219;28;20201;-85
2023/11/25 02:31:51;;;;;;;1.67;1.67;;;4.90;99.90;;;;;;5075605;28;20297;-83
2023/11/25 02:34:20;;;;;;;2.00;1.90;;;4.90;99.90;;;;;;5069766;28;20233;-82
2023/11/25 02:36:48;;;;;;;2.15;2.05;;;5.00;99.90;;;;;;5074582;28;20218;-83
2023/11/25 02:39:17;;;;;;;2.05;1.95;;;4.90;99.90;;;;;;5071085;28;20211;-85
2023/11/25 02:41:48;;;;;;;1.80;1.80;;;4.90;99.90;;;;;;5072456;28;20312;-80
2023/11/25 02:44:16;;;;;;;2.30;2.10;;;5.00;99.90;;;;;;5075091;28;20218;-85
2023/11/25 02:46:45;;;;;;;2.10;2.00;;;5.00;99.90;;;;;;5073374;28;20215;-87
2023/11/25 02:49:12;;;;;;;2.05;1.98;;;5.00;99.90;;;;;;5076844;28;20194;-84
2023/11/25 02:51:39;;;;;;;2.13;2.03;;;5.00;99.90;;;;;;5076509;28;20827;-86
2023/11/25 02:54:06;;;;;;;1.70;1.70;;;5.00;99.90;;;;;;5074237;28;20732;-83
2023/11/25 02:56:35;;;;;;;2.10;2.00;;;5.00;99.90;;;;;;5076614;28;20240;-82
2023/11/25 02:59:03;;;;;;;1.88;1.85;;;5.00;99.90;;;;;;5072373;28;20206;-84
2023/11/25 03:01:32;;;;;;;2.00;2.00;;;5.00;99.90;;;;;;5065959;28;20213;-80
2023/11/25 03:04:05;;;;;;;1.67;1.67;;;5.00;99.90;;;;;;5072487;28;20296;-79
2023/11/25 03:06:32;;;;;;;1.80;1.80;;;5.00;99.90;;;;;;5073115;28;20224;-81
2023/11/25 03:08:59;;;;;;;1.70;1.60;;;4.90;99.90;;;;;;5070298;28;20965;-80
2023/11/25 03:11:28;;;;;;;1.83;1.83;;;4.90;99.90;;;;;;5071160;28;20229;-84
2023/11/25 03:13:55;;;;;;;2.20;2.10;;;4.80;99.90;;;;;;5074312;28;20232;-78
2023/11/25 03:16:24;;;;;;;2.22;2.13;;;4.70;99.90;;;;;;5072496;28;20233;-79
2023/11/25 03:18:52;;;;;;;2.13;2.03;;;4.60;99.90;;;;;;5073768;28;20205;-82
2023/11/25 03:21:20;;;;;;;1.80;1.80;;;4.50;99.90;;;;;;5078023;28;20228;-83
2023/11/25 03:23:47;;;;;;;1.83;1.83;;;4.60;99.90;;;;;;5078008;28;20298;-82
2023/11/25 03:26:15;;;;;;;2.22;2.13;;;4.60;99.90;;;;;;5077820;28;20218;-80
2023/11/25 03:28:42;;;;;;;1.85;1.85;;;4.60;99.90;;;;;;5078246;28;20271;-83
2023/11/25 03:31:10;;;;;;;2.10;2.00;;;4.60;99.90;;;;;;5076261;28;20232;-82
2023/11/25 03:33:38;;;;;;;2.17;2.08;;;4.60;99.90;;;;;;5079043;28;20233;-85
2023/11/25 03:36:07;;;;;;;2.05;2.00;;;4.60;99.90;;;;;;5078042;28;20225;-86
2023/11/25 03:38:34;;;;;;;1.67;1.67;;;4.60;99.90;;;;;;5075628;28;20238;-81
2023/11/25 03:41:01;;;;;;;1.85;1.85;;;4.60;99.90;;;;;;5079997;28;20807;-86
2023/11/25 03:43:29;;;;;;;2.25;2.17;;;4.60;99.90;;;;;;5076397;28;20191;-84
2023/11/25 03:45:56;;;;;;;1.83;1.83;;;4.50;99.90;;;;;;5078475;28;20214;-81
2023/11/25 03:48:24;;;;;;;2.05;1.98;;;4.50;99.90;;;;;;5083214;28;20194;-81
2023/11/25 03:50:52;;;;;;;2.05;1.95;;;4.50;99.90;;;;;;5076988;28;20213;-79
2023/11/25 03:53:19;;;;;;;2.00;2.00;;;4.40;99.90;;;;;;5076627;28;20453;-79
2023/11/25 03:55:46;;;;;;;2.00;1.90;;;4.40;99.90;;;;;;5077233;28;20229;-88
2023/11/25 03:58:13;;;;;;;2.20;2.10;;;4.40;99.90;;;;;;5080559;28;20206;-80
2023/11/25 04:00:41;;;;;;;2.00;2.00;;;4.40;99.90;;;;;;5078925;28;20228;-83
2023/11/25 04:03:08;;;;;;;2.47;2.38;;;4.40;99.90;;;;;;5075719;28;20217;-87
2023/11/25 04:05:36;;;;;;;1.98;1.98;;;4.40;99.90;;;;;;5077060;28;20226;-85
2023/11/25 04:08:05;;;;;;;2.20;2.10;;;4.40;99.90;;;;;;5083034;28;20788;-84
2023/11/25 04:10:32;;;;;;;2.20;2.10;;;4.40;99.90;;;;;;5079548;28;20218;-84
2023/11/25 04:12:59;;;;;;;1.77;1.77;;;4.40;99.90;;;;;;5078989;28;20611;-83
2023/11/25 04:15:26;;;;;;;2.10;2.00;;;4.40;99.90;;;;;;5078033;28;20817;-82
2023/11/25 04:17:53;;;;;;;1.92;1.92;;;4.40;99.90;;;;;;5079482;28;20672;-79
2023/11/25 04:20:27;;;;;;;2.00;1.90;;;4.40;99.90;;;;;;5079132;28;20214;-82
2023/11/25 04:22:55;;;;;;;2.20;2.10;;;4.40;99.90;;;;;;5081720;28;20197;-80
2023/11/25 04:25:24;;;;;;;1.92;1.90;;;4.50;99.90;;;;;;5079447;28;21430;-86
2023/11/25 04:27:51;;;;;;;1.92;1.83;;;4.50;99.90;;;;;;5074354;28;20297;-84
2023/11/25 04:30:19;;;;;;;1.92;1.90;;;4.60;99.90;;;;;;5078660;28;20239;-83
2023/11/25 04:32:47;;;;;;;1.80;1.80;;;4.60;99.90;;;;;;5078096;28;20700;-82
2023/11/25 04:35:15;;;;;;;1.90;1.80;;;4.70;99.90;;;;;;5074655;28;20222;-85
2023/11/25 04:37:44;;;;;;;2.15;2.05;;;4.70;99.90;;;;;;5075587;28;20810;-81
2023/11/25 04:40:12;;;;;;;1.92;1.90;;;4.70;99.90;;;;;;5074815;28;20217;-80
2023/11/25 04:42:42;;;;;;;1.90;1.90;;;4.80;99.90;;;;;;5076032;28;20494;-80
2023/11/25 04:45:15;;;;;;;2.13;2.03;;;4.80;99.90;;;;;;5075851;28;20692;-81
2023/11/25 04:47:44;;;;;;;1.92;1.90;;;4.70;99.90;;;;;;5076516;28;20205;-83
2023/11/25 04:50:12;;;;;;;2.03;2.03;;;4.60;99.90;;;;;;5085498;28;20218;-86
2023/11/25 04:52:39;;;;;;;1.70;1.70;;;4.50;99.90;;;;;;5086273;28;20220;-84
2023/11/25 04:55:08;;;;;;;1.85;1.85;;;4.40;99.90;;;;;;5078208;28;20230;-81
2023/11/25 04:57:36;;;;;;;1.95;1.95;;;4.30;99.90;;;;;;5077397;28;20703;-83
2023/11/25 05:00:09;;;;;;;2.00;2.00;;;4.20;99.90;;;;;;5079530;28;20233;-90
2023/11/25 05:02:36;;;;;;;1.98;1.98;;;4.20;99.90;;;;;;5072987;28;20202;-81
2023/11/25 05:05:04;;;;;;;2.30;2.20;;;4.30;99.90;;;;;;5072427;28;20313;-88
2023/11/25 05:07:32;;;;;;;2.08;1.98;;;4.30;99.90;;;;;;5081073;28;20194;-85
2023/11/25 05:10:00;;;;;;;2.95;2.75;;;4.30;99.90;;;;;;5074098;28;20241;-86
2023/11/25 05:12:28;;;;;;;2.47;2.28;;;4.30;99.90;;;;;;5075344;28;20202;-80
2023/11/25 05:14:55;;;;;;;2.42;2.30;;;4.30;99.90;;;;;;5073768;28;20218;-83
2023/11/25 05:17:23;;;;;;;2.20;2.10;;;4.30;99.90;;;;;;5076729;28;20201;-87
2023/11/25 05:19:51;;;;;;;1.92;1.83;;;4.30;99.90;;;;;;5071435;28;20759;-80
2023/11/25 05:22:18;;;;;;;2.50;2.30;;;4.20;99.90;;;;;;5074057;28;20739;-80
2023/11/25 05:24:45;;;;;;;2.20;2.10;;;4.20;99.90;;;;;;5071152;28;20590;-85
2023/11/25 05:27:12;;;;;;;1.92;1.92;;;4.10;99.90;;;;;;5076353;28;21134;-81
2023/11/25 05:29:39;;;;;;;2.30;2.20;;;4.00;99.90;;;;;;5073080;28;20961;-85
2023/11/25 05:32:08;;;;;;;2.35;2.25;;;3.90;99.90;;;;;;5078532;28;20210;-84
2023/11/25 05:34:36;;;;;;;2.20;2.10;;;3.90;99.90;;;;;;5073354;28;20225;-84
2023/11/25 05:37:04;;;;;;;2.30;2.20;;;3.90;99.90;;;;;;5054534;28;20995;-82
2023/11/25 05:39:31;;;;;;;2.30;2.20;;;3.90;99.90;;;;;;5050932;28;20194;-84
2023/11/25 05:41:58;;;;;;;2.17;2.08;;;3.90;99.90;;;;;;5058794;28;20303;-84
2023/11/25 05:44:26;;;;;;;2.08;2.08;;;4.00;99.90;;;;;;5058860;28;20650;-81
2023/11/25 05:46:55;;;;;;;2.30;2.20;;;4.00;99.90;;;;;;5073022;28;20241;-86
2023/11/25 05:49:23;;;;;;;2.17;2.00;;;4.10;99.90;;;;;;5071564;28;20206;-81
2023/11/25 05:51:52;;;;;;;2.30;2.20;;;4.10;99.90;;;;;;5070384;28;20256;-83
2023/11/25 05:54:19;;;;;;;2.22;2.13;;;4.00;99.90;;;;;;5071067;28;20312;-85
2023/11/25 05:56:48;;;;;;;2.45;2.33;;;3.90;99.90;;;;;;5056941;28;20238;-83
2023/11/25 05:59:16;;;;;;;2.17;2.08;;;3.80;99.90;;;;;;5054018;28;22469;-82
2023/11/25 06:01:43;;;;;;;2.30;2.20;;;3.70;99.90;;;;;;5052300;28;20215;-90
2023/11/25 06:04:10;;;;;;;2.22;2.13;;;3.70;99.90;;;;;;5054842;28;20227;-83
2023/11/25 06:06:38;;;;;;;2.33;2.22;;;3.60;99.90;;;;;;5074809;28;20268;-81
2023/11/25 06:09:11;;;;;;;1.90;1.90;;;3.60;99.90;;;;;;5076577;28;20203;-84
2023/11/25 06:11:39;;;;;;;2.28;2.17;;;3.60;99.90;;;;;;5072123;28;20220;-83
2023/11/25 06:14:07;;;;;;;2.28;2.17;;;3.60;99.90;;;;;;5075995;28;20245;-88
2023/11/25 06:16:35;;;;;;;1.92;1.83;;;3.60;99.90;;;;;;5077391;28;20252;-85
2023/11/25 06:19:03;;;;;;;2.35;2.25;;;3.60;99.90;;;;;;5071727;28;20262;-77
2023/11/25 06:21:31;;;;;;;2.25;2.15;;;3.60;99.90;;;;;;5077287;28;20232;-81
2023/11/25 06:24:00;;;;;;;2.38;2.17;;;3.60;99.90;;;;;;5072458;28;20642;-78
2023/11/25 06:26:28;;;;;;;2.38;2.28;;;3.60;99.90;;;;;;5073257;28;20222;-84
2023/11/25 06:28:56;;;;;;;2.55;2.20;;;3.50;99.90;;;;;;5072362;28;20191;-85
2023/11/25 06:31:23;;;;;;;2.20;2.10;;;3.50;99.90;;;;;;5075992;28;20222;-84
2023/11/25 06:33:51;;;;;;;2.38;2.20;;;3.40;99.90;;;;;;5074665;28;20229;-88
2023/11/25 06:36:18;;;;;;;2.30;2.20;;;3.40;99.90;;;;;;5073976;28;20253;-87
2023/11/25 06:38:45;;;;;;;2.60;2.40;;;3.30;99.90;;;;;;5073198;28;20222;-83
2023/11/25 06:41:12;;;;;;;2.40;2.20;;;3.40;99.90;;;;;;5069930;28;20221;-83
2023/11/25 06:43:43;;;;;;;1.80;1.80;;;3.40;99.90;;;;;;5071998;28;20219;-86
2023/11/25 06:46:11;;;;;;;2.50;2.40;;;3.40;99.90;;;;;;5073214;28;20627;-85
2023/11/25 06:48:38;;;;;;;4.20;2.60;;;3.40;99.90;;;;;;5072006;28;20214;-82
2023/11/25 06:51:06;;;;;;;2.35;2.25;;;3.50;99.90;;;;;;5070566;28;20226;-78
2023/11/25 06:53:33;;;;;;;2.25;2.15;;;3.50;99.90;;;;;;5075194;28;20204;-85
2023/11/25 06:56:00;;;;;;;2.10;2.00;;;3.50;99.90;;;;;;5074300;28;20236;-85
2023/11/25 06:58:27;;;;;;;2.40;2.30;;;3.50;99.90;;;;;;5074470;28;20194;-80
2023/11/25 07:00:58;;;;;;;2.17;2.08;;;3.50;99.90;;;;;;5075407;28;20218;-85
2023/11/25 07:03:25;;;;;;;2.30;2.20;;;3.40;99.90;;;;;;5074878;28;20198;-83
2023/11/25 07:05:52;;;;;;;2.67;2.50;;;3.40;99.90;;;;;;5077277;28;20223;-79
2023/11/25 07:08:19;;;;;;;3.00;2.80;;;3.40;99.90;;;;;;5071841;28;20229;-87
2023/11/25 07:10:53;;;;;;;2.35;2.25;;;3.30;99.90;;;;;;5073124;28;20746;-82
2023/11/25 07:13:21;;;;;;;2.50;2.40;;;3.20;99.90;;;;;;5079778;28;20240;-86
2023/11/25 07:15:49;;;;;;;2.30;2.20;;;3.10;99.90;;;;;;5075861;28;20291;-79
2023/11/25 07:18:18;;;;;;;2.47;2.38;;;3.10;99.90;;;;;;5076102;28;20427;-78
2023/11/25 07:20:46;;;;;;;2.40;2.30;;;3.10;99.90;;;;;;5075509;28;20229;-89
2023/11/25 07:23:14;;;;;;;2.13;2.03;;;3.10;99.90;;;;;;5077365;28;20936;-82
2023/11/25 07:25:45;;;;;;;2.30;2.20;;;3.00;99.90;;;;;;5069712;28;20244;-81
2023/11/25 07:28:12;;;;;;;2.40;2.30;;;3.00;99.90;;;;;;5073050;28;20199;-82
2023/11/25 07:30:41;;;;;;;2.30;2.20;;;3.00;99.90;;;;;;5076478;28;20215;-82
2023/11/25 07:33:09;;;;;;;2.70;2.50;;;3.00;99.90;;;;;;5071826;28;20213;-79
2023/11/25 07:35:37;;;;;;;2.70;2.60;;;3.10;99.90;;;;;;5074632;28;20243;-84
2023/11/25 07:38:04;;;;;;;2.50;2.40;;;3.10;99.90;;;;;;5073964;28;20646;-82
2023/11/25 07:40:32;;;;;;;2.20;2.10;;;3.20;99.90;;;;;;5072954;28;20218;-82
2023/11/25 07:42:59;;;;;;;2.50;2.40;;;3.30;99.90;;;;;;5072262;28;20283;-80
2023/11/25 07:45:26;;;;;;;2.15;2.05;;;3.40;99.90;;;;;;5076428;28;20222;-80
2023/11/25 07:47:53;;;;;;;2.35;2.15;;;3.40;99.90;;;;;;5075130;28;20194;-85
2023/11/25 07:50:21;;;;;;;2.08;1.98;;;3.40;99.90;;;;;;5069237;28;20229;-87
2023/11/25 07:52:50;;;;;;;2.58;2.47;;;3.40;99.90;;;;;;5074609;28;20616;-82
2023/11/25 07:55:17;;;;;;;2.60;2.45;;;3.50;99.90;;;;;;5079714;28;20838;-78
2023/11/25 07:57:46;;;;;;;2.97;2.78;;;3.50;99.90;;;;;;5076001;28;20220;-80
2023/11/25 08:00:15;;;;;;;2.50;1.90;;;3.70;99.90;;;;;;5073954;28;20214;-83
2023/11/25 08:02:42;;;;;;;2.13;2.03;;;4.70;99.90;;;;;;5076660;28;20199;-81
2023/11/25 08:05:10;;;;;;;2.40;2.30;;;5.70;99.90;;;;;;5072170;28;20234;-83
2023/11/25 08:07:37;;;;;;;2.05;1.98;;;6.50;99.90;;;;;;5075832;28;20252;-79
2023/11/25 08:10:09;;;;;;;2.10;2.00;;;7.10;99.90;;;;;;5074303;28;20602;-78
2023/11/25 08:12:36;;;;;;;2.17;2.08;;;7.60;99.90;;;;;;5074163;28;20301;-83
2023/11/25 08:15:03;;;;;;;2.25;2.10;;;8.10;99.90;;;;;;5073430;28;20232;-79
2023/11/25 08:17:30;;;;;;;2.20;2.10;;;8.40;99.90;;;;;;5078018;28;20206;-77
2023/11/25 08:19:58;;;;;;;3.28;2.33;;;8.60;99.90;;;;;;5072536;28;20807;-83
2023/11/25 08:22:25;;;;;;;2.22;2.13;;;8.90;99.90;;;;;;5073499;28;20198;-79
2023/11/25 08:24:56;;;;;;;2.60;2.40;;;9.00;99.90;;;;;;5064581;28;20211;-86
2023/11/25 08:27:24;;;;;;;2.47;2.20;;;9.10;99.90;;;;;;5077710;28;20195;-79
2023/11/25 08:29:51;;;;;;;2.20;2.10;;;9.30;99.90;;;;;;5061585;28;20206;-77
2023/11/25 08:32:18;;;;;;;2.22;2.13;;;9.30;99.90;;;;;;5057924;28;20617;-78
2023/11/25 08:34:46;;;;;;;3.90;3.60;;;9.40;99.90;;;;;;5060516;28;20221;-77
2023/11/25 08:37:13;;;;;;;3.22;2.75;;;9.30;99.90;;;;;;5056940;28;20268;-80
2023/11/25 08:39:40;;;;;;;2.15;2.05;;;9.50;99.90;;;;;;5057403;28;20210;-76
2023/11/25 08:42:09;;;;;;;1.80;1.70;;;9.80;99.90;;;;;;5059483;28;20199;-78
2023/11/25 08:44:37;;;;;;;2.00;1.90;;;10.20;99.90;;;;;;5059055;28;20221;-81
2023/11/25 08:47:05;;;;;;;2.20;2.00;;;10.20;99.90;;;;;;5040387;28;20242;-76
2023/11/25 08:49:32;;;;;;;1.98;1.88;;;10.20;99.90;;;;;;5039627;28;20203;-81
2023/11/25 08:51:59;;;;;;;2.03;1.88;;;10.30;99.70;;;;;;5059656;28;20788;-81
2023/11/25 08:54:26;;;;;;;1.92;1.58;;;10.20;99.10;;;;;;5059653;28;20224;-79
2023/11/25 08:56:54;;;;;;;1.80;1.70;;;10.40;99.60;;;;;;5064530;28;20214;-78
2023/11/25 08:59:22;;;;;;;1.70;1.60;;;10.50;97.10;;;;;;5061984;28;20688;-80
2023/11/25 09:01:53;;;;;;;1.50;1.50;;;10.80;97.90;;;;;;5059454;28;20461;-81
2023/11/25 09:04:22;;;;;;;1.73;1.63;;;11.70;95.60;;;;;;5061569;28;20224;-80
2023/11/25 09:06:50;;;;;;;1.60;1.50;;;12.70;92.00;;;;;;5062189;28;20221;-77
2023/11/25 09:09:19;;;;;;;1.58;1.58;;;14.10;81.20;;;;;;5059881;28;20213;-80
2023/11/25 09:11:47;;;;;;;1.80;1.70;;;15.60;74.70;;;;;;5060026;28;20230;-81
2023/11/25 09:14:16;;;;;;;1.60;1.60;;;17.10;67.50;;;;;;5058691;28;20218;-80
2023/11/25 09:16:43;;;;;;;1.60;1.50;;;18.60;59.80;;;;;;5060768;28;20229;-83
2023/11/25 09:19:13;;;;;;;2.40;1.58;;;19.30;52.00;;;;;;5059178;28;20201;-81
2023/11/25 09:21:41;;;;;;;1.67;1.58;;;20.00;50.40;;;;;;5063298;28;20270;-82
2023/11/25 09:24:08;;;;;;;2.13;1.73;;;20.60;45.70;;;;;;5062356;28;20271;-77
2023/11/25 09:26:36;;;;;;;1.48;1.38;;;20.50;46.00;;;;;;5060948;28;20241;-77
2023/11/25 09:29:04;;;;;;;1.73;1.63;;;20.80;43.50;;;;;;5060672;28;20191;-80
2023/11/25 09:31:31;;;;;;;1.70;1.60;;;20.20;41.90;;;;;;5058000;28;20210;-80
2023/11/25 09:33:59;;;;;;;1.70;1.60;;;20.00;42.50;;;;;;5061942;28;20214;-80
2023/11/25 09:36:28;;;;;;;1.23;1.23;;;19.40;42.70;;;;;;5057394;28;20699;-82
2023/11/25 09:38:55;;;;;;;1.38;1.35;;;18.20;42.70;;;;;;5059822;28;20206;-77
2023/11/25 09:41:23;;;;;;;2.58;1.45;;;16.60;45.00;;;;;;5057947;28;20226;-78
2023/11/25 09:43:50;;;;;;;1.63;1.52;;;15.30;47.00;;;;;;5063342;28;20708;-84
2023/11/25 09:46:17;;;;;;;1.63;1.50;;;14.20;48.30;;;;;;5056948;28;20211;-77
2023/11/25 09:48:45;;;;;;;1.55;1.45;;;13.30;49.50;;;;;;5060098;28;20741;-77
2023/11/25 09:51:16;;;;;;;1.45;1.40;;;12.70;48.60;;;;;;5058033;28;20713;-78
2023/11/25 09:53:45;;;;;;;1.10;1.10;;;12.30;51.30;;;;;;5056694;28;20214;-76
2023/11/25 09:56:14;;;;;;;1.60;1.50;;;12.20;52.10;;;;;;5056049;28;20218;-83
2023/11/25 09:58:41;;;;;;;1.38;1.30;;;12.30;50.00;;;;;;5058830;28;20289;-77
2023/11/25 10:01:12;;;;;;;1.77;1.67;;;11.90;47.40;;;;;;5057323;28;20225;-81
2023/11/25 10:03:42;;;;;;;1.80;1.70;;;11.60;49.40;;;;;;5058216;28;20203;-77
2023/11/25 10:06:11;;;;;;;2.00;1.80;;;11.70;50.30;;;;;;5055223;28;20293;-79
2023/11/25 10:08:38;;;;;;;2.58;2.38;;;11.50;49.80;;;;;;5054632;28;20256;-76
2023/11/25 10:11:08;;;;;;;2.95;1.80;;;11.60;51.60;;;;;;5056527;28;20722;-80
2023/11/25 10:13:36;;;;;;;1.95;1.50;;;11.80;52.30;;;;;;5057683;28;20238;-76
2023/11/25 10:16:05;;;;;;;1.40;1.40;;;11.60;46.30;;;;;;5054924;28;20232;-80
2023/11/25 10:18:36;;;;;;;1.48;1.48;;;11.40;46.90;;;;;;5058278;28;20230;-79
2023/11/25 10:21:05;;;;;;;1.55;1.48;;;11.40;48.70;;;;;;5055057;28;20225;-79
2023/11/25 10:23:33;;;;;;;1.50;1.40;;;11.50;48.80;;;;;;5059760;28;20217;-76
2023/11/25 10:26:03;;;;;;;1.58;1.48;;;11.80;51.00;;;;;;5060048;28;20230;-82
2023/11/25 10:28:33;;;;;;;1.40;1.40;;;12.00;54.00;;;;;;5056616;28;20395;-87
2023/11/25 10:31:03;;;;;;;1.45;1.45;;;12.00;51.40;;;;;;5058656;28;20245;-84
2023/11/25 10:33:31;;;;;;;1.80;1.70;;;11.70;51.30;;;;;;5058596;28;20640;-79
2023/11/25 10:35:59;;;;;;;1.92;1.40;;;11.90;51.10;;;;;;5057261;28;20237;-83
2023/11/25 10:38:28;;;;;;;1.30;1.20;;;11.90;49.60;;;;;;5056294;28;20209;-79
2023/11/25 10:40:59;;;;;;;1.48;1.48;;;11.60;48.50;;;;;;5056587;28;20209;-80
2023/11/25 10:43:27;;;;;;;3.05;1.40;;;11.30;46.40;;;;;;5056732;28;22115;-81
2023/11/25 10:46:04;;;;;;;2.08;1.60;;;11.20;45.80;;;;;;5050995;28;20300;-83
2023/11/25 10:48:32;;;;;;;2.20;1.50;;;11.00;46.20;;;;;;5054974;28;20282;-80
2023/11/25 10:50:59;;;;;;;2.05;1.40;;;11.00;46.20;;;;;;5058795;28;20253;-81
2023/11/25 10:53:29;;;;;;;1.50;1.40;;;11.20;47.10;;;;;;5058148;28;20202;-79
2023/11/25 10:55:58;;;;;;;1.60;1.50;;;11.30;46.60;;;;;;5057173;28;20826;-82
2023/11/25 10:58:27;;;;;;;2.13;1.70;;;11.40;44.20;;;;;;5060268;28;20198;-81
2023/11/25 11:00:55;;;;;;;2.85;1.80;;;11.50;46.50;;;;;;5056752;28;20242;-79
2023/11/25 11:03:47;;;;;;;4.85;1.60;;;11.60;46.20;;;;;;5058254;28;20202;-82
2023/11/25 11:06:20;;;;;;;2.13;2.00;;;11.80;45.60;;;;;;5057186;28;20917;-81
2023/11/25 11:08:49;;;;;;;2.90;1.48;;;11.60;44.40;;;;;;5058298;28;20317;-78
2023/11/25 11:11:18;;;;;;;2.78;1.50;;;11.50;45.30;;;;;;5055703;28;20220;-78
2023/11/25 11:13:52;;;;;;;1.58;1.48;;;11.50;44.20;;;;;;5060506;28;20236;-78
2023/11/25 11:16:27;;;;;;;1.42;1.42;;;11.50;44.70;;;;;;5056081;28;20229;-80
2023/11/25 11:18:57;;;;;;;2.83;1.48;;;11.50;45.10;;;;;;5057890;28;20197;-84
2023/11/25 11:21:33;;;;;;;1.98;1.83;;;11.40;42.80;;;;;;5052104;28;20708;-80
2023/11/25 11:24:01;;;;;;;1.23;1.23;;;11.20;42.00;;;;;;5052143;28;20225;-80
2023/11/25 11:26:35;;;;;;;1.70;1.60;;;11.10;43.10;;;;;;5054590;28;20309;-78
2023/11/25 11:29:13;;;;;;;1.42;1.38;;;11.10;44.90;;;;;;5054705;28;20210;-78
2023/11/25 11:32:00;;;;;;;1.60;1.50;;;11.20;45.60;;;;;;5055039;28;20210;-81
2023/11/25 11:34:30;;;;;;;1.27;1.20;;;11.40;43.80;;;;;;5053685;28;20221;-78
2023/11/25 11:36:58;;;;;;;2.35;1.40;;;11.30;43.60;;;;;;5053137;28;20225;-78
2023/11/25 11:39:38;;;;;;;2.90;1.85;;;11.30;43.70;;;;;;5052840;28;20206;-78
2023/11/25 11:42:26;;;;;;;3.13;1.77;;;10.80;43.50;;;;;;5057684;28;20217;-79
2023/11/25 11:45:11;;;;;;;1.25;1.25;;;10.70;44.00;;;;;;5063862;28;20218;-78
2023/11/25 11:47:39;;;;;;;3.28;2.08;;;10.90;44.30;;;;;;5056577;28;20264;-82
2023/11/25 11:50:09;;;;;;;1.45;1.42;;;11.20;44.10;;;;;;5060449;28;20253;-79
2023/11/25 11:52:59;;;;;;;1.63;1.52;;;11.10;43.80;;;;;;5062273;28;20202;-80
2023/11/25 11:55:38;;;;;;;1.27;1.27;;;10.70;40.90;;;;;;5051956;28;20226;-79
2023/11/25 11:58:08;;;;;;;4.30;1.83;;;10.70;43.50;;;;;;5058187;28;20222;-81
2023/11/25 12:00:41;;;;;;;1.63;1.52;;;10.70;46.10;;;;;;5061917;28;20283;-78
2023/11/25 12:03:09;;;;;;;1.45;1.35;;;10.80;44.40;;;;;;5062357;28;20199;-80
2023/11/25 12:05:38;;;;;;;1.70;1.60;;;11.10;46.10;;;;;;5060615;28;20240;-80
2023/11/25 12:08:06;;;;;;;1.95;1.77;;;11.20;44.80;;;;;;5060987;28;20210;-76
2023/11/25 12:10:33;;;;;;;1.60;1.50;;;11.10;44.30;;;;;;5055212;28;20253;-76
2023/11/25 12:13:00;;;;;;;1.50;1.40;;;11.10;44.30;;;;;;5057478;28;20229;-76
2023/11/25 12:15:30;;;;;;;3.03;1.90;;;11.10;44.60;;;;;;5060857;28;20221;-77
2023/11/25 12:17:58;;;;;;;1.50;1.40;;;11.10;42.90;;;;;;5061232;28;20217;-78
2023/11/25 12:20:27;;;;;;;1.58;1.20;;;11.10;45.00;;;;;;5059236;28;20248;-78
2023/11/25 12:22:56;;;;;;;1.52;1.42;;;11.10;44.00;;;;;;5060290;28;20198;-79
2023/11/25 12:25:26;;;;;;;1.48;1.38;;;11.00;43.70;;;;;;5056992;28;20256;-75
2023/11/25 12:27:58;;;;;;;1.60;1.50;;;10.90;43.40;;;;;;5057763;28;20221;-79
2023/11/25 12:30:25;;;;;;;1.63;1.50;;;10.90;43.70;;;;;;5053035;28;20214;-78
2023/11/25 12:32:52;;;;;;;1.75;1.65;;;10.90;44.30;;;;;;5053196;28;20264;-80
2023/11/25 12:35:20;;;;;;;2.08;1.50;;;10.90;44.00;;;;;;5062398;28;20225;-80
2023/11/25 12:37:49;;;;;;;1.40;1.30;;;11.00;44.00;;;;;;5064878;28;21254;-78
2023/11/25 12:40:19;;;;;;;1.60;1.50;;;10.90;44.00;;;;;;5061901;28;20218;-77
2023/11/25 12:42:50;;;;;;;1.65;1.55;;;10.90;43.60;;;;;;5058931;28;20214;-80
2023/11/25 12:45:34;;;;;;;1.83;1.73;;;10.90;44.10;;;;;;5061067;28;20717;-81
2023/11/25 12:48:03;;;;;;;1.63;1.52;;;10.80;43.30;;;;;;5063719;28;20204;-84
2023/11/25 12:50:31;;;;;;;1.40;1.40;;;10.60;43.00;;;;;;5061304;28;20257;-85
2023/11/25 12:53:05;;;;;;;2.67;1.60;;;10.50;42.60;;;;;;5060323;28;20375;-84
2023/11/25 12:55:42;;;;;;;1.70;1.60;;;10.40;43.80;;;;;;5060247;28;20221;-81
2023/11/25 12:58:15;;;;;;;1.58;1.48;;;10.30;43.20;;;;;;5063650;28;20210;-85
2023/11/25 13:00:47;;;;;;;8.15;1.77;;;10.40;43.30;;;;;;5060703;28;20218;-84